Time;durP1;ratioP1;P1;durP2;ratioP2;P2;SDS_P1;SDS_P2;PMS_P1;PMS_P2;Temp;Humidity;BMP_temperature;BMP_pressure;BME280_temperature;BME280_humidity;BME280_pressure;Samples;Min_cycle;Max_cycle;Signal;HPM_P1;HPM_P2
2021/06/17 00:00:55;;;;;;;4.93;4.05;;;25.60;97.50;;;;;;4125874;28;20078;-86
2021/06/17 00:02:57;;;;;;;4.25;3.85;;;25.60;97.30;;;;;;4142566;28;20083;-86
2021/06/17 00:04:57;;;;;;;4.10;3.70;;;25.60;97.30;;;;;;4126353;28;20038;-86
2021/06/17 00:06:58;;;;;;;4.63;4.18;;;25.60;97.40;;;;;;4142656;28;20069;-86
2021/06/17 00:08:59;;;;;;;4.53;3.88;;;25.60;97.60;;;;;;4143537;28;20121;-86
2021/06/17 00:11:00;;;;;;;8.90;4.28;;;25.50;98.00;;;;;;4125997;28;20731;-86
2021/06/17 00:13:05;;;;;;;6.10;4.10;;;25.50;98.00;;;;;;4141857;28;20041;-86
2021/06/17 00:15:08;;;;;;;5.22;4.13;;;25.50;97.90;;;;;;4125981;28;20038;-86
2021/06/17 00:17:09;;;;;;;4.60;4.13;;;25.40;97.70;;;;;;4127192;28;20089;-86
2021/06/17 00:19:10;;;;;;;5.22;4.03;;;25.40;97.80;;;;;;4122665;28;20046;-86
2021/06/17 00:21:11;;;;;;;5.70;3.60;;;25.40;97.70;;;;;;4126388;28;20451;-86
2021/06/17 00:23:12;;;;;;;4.82;3.80;;;25.40;97.50;;;;;;4143108;28;20037;-87
2021/06/17 00:25:14;;;;;;;4.47;4.07;;;25.40;97.80;;;;;;4129826;28;20041;-86
2021/06/17 00:27:14;;;;;;;5.80;3.97;;;25.30;97.70;;;;;;4145943;28;20160;-86
2021/06/17 00:29:15;;;;;;;5.47;3.92;;;25.30;97.90;;;;;;4146010;28;20331;-86
2021/06/17 00:31:15;;;;;;;7.28;4.15;;;25.30;97.60;;;;;;4145965;28;20088;-86
2021/06/17 00:33:16;;;;;;;6.53;4.22;;;25.30;97.50;;;;;;4129634;28;21521;-86
2021/06/17 00:35:18;;;;;;;5.35;3.72;;;25.30;97.40;;;;;;4129588;28;20050;-86
2021/06/17 00:37:18;;;;;;;4.78;3.65;;;25.30;96.90;;;;;;4145789;28;20109;-86
2021/06/17 00:39:19;;;;;;;4.55;3.97;;;25.30;97.00;;;;;;4128541;28;20046;-86
2021/06/17 00:41:26;;;;;;;6.68;4.63;;;25.30;96.90;;;;;;4129127;28;20042;-86
2021/06/17 00:43:27;;;;;;;5.72;4.00;;;25.30;96.60;;;;;;4128388;28;20038;-86
2021/06/17 00:45:34;;;;;;;6.18;4.32;;;25.30;96.30;;;;;;4141904;28;20038;-86
2021/06/17 00:47:34;;;;;;;8.27;4.47;;;25.20;95.40;;;;;;4142660;28;20038;-86
2021/06/17 00:49:35;;;;;;;6.07;4.15;;;25.10;94.80;;;;;;4120760;28;20411;-86
2021/06/17 00:51:36;;;;;;;4.45;3.88;;;25.10;94.30;;;;;;4118024;28;20045;-86
2021/06/17 00:53:36;;;;;;;6.65;4.22;;;25.10;94.20;;;;;;4128962;28;20046;-86
2021/06/17 00:55:39;;;;;;;5.00;3.58;;;25.10;93.80;;;;;;4129438;28;20508;-86
2021/06/17 00:57:41;;;;;;;9.65;3.80;;;25.10;93.80;;;;;;4129489;28;20639;-86
2021/06/17 00:59:54;;;;;;;6.60;3.95;;;25.10;93.90;;;;;;4128546;28;20034;-86
2021/06/17 01:01:55;;;;;;;5.50;4.00;;;25.10;93.90;;;;;;4145317;28;20381;-87
2021/06/17 01:03:55;;;;;;;7.93;4.18;;;25.10;93.50;;;;;;4126774;28;20035;-86
2021/06/17 01:05:57;;;;;;;5.47;3.55;;;25.00;92.90;;;;;;4145569;28;20465;-86
2021/06/17 01:08:04;;;;;;;5.35;3.90;;;25.10;92.90;;;;;;4129087;28;20034;-86
2021/06/17 01:10:12;;;;;;;5.82;3.58;;;25.00;93.00;;;;;;4143488;28;20026;-86
2021/06/17 01:12:27;;;;;;;5.47;3.97;;;25.10;93.00;;;;;;4144777;28;20060;-86
2021/06/17 01:14:37;;;;;;;4.75;3.58;;;25.00;93.10;;;;;;4143633;28;20026;-86
2021/06/17 01:16:51;;;;;;;6.00;3.63;;;25.00;92.60;;;;;;4127724;28;20030;-86
2021/06/17 01:19:14;;;;;;;4.05;3.40;;;25.00;92.50;;;;;;4139563;28;20406;-86
2021/06/17 01:21:55;;;;;;;10.52;3.95;;;25.00;92.80;;;;;;4143607;28;24510;-86
2021/06/17 01:24:39;;;;;;;5.05;3.47;;;25.00;92.70;;;;;;4127638;28;20034;-86
2021/06/17 01:27:10;;;;;;;6.07;3.40;;;24.90;92.70;;;;;;4128090;28;20556;-86
2021/06/17 01:29:15;;;;;;;5.55;4.40;;;24.90;92.80;;;;;;4143552;28;20116;-86
2021/06/17 01:31:25;;;;;;;3.83;3.42;;;24.90;92.50;;;;;;4128507;28;20065;-86
2021/06/17 01:33:30;;;;;;;5.13;3.38;;;24.90;93.10;;;;;;4147034;28;20097;-86
2021/06/17 01:35:38;;;;;;;5.80;3.97;;;24.80;92.30;;;;;;4144614;28;20080;-86
2021/06/17 01:37:40;;;;;;;6.38;3.63;;;24.80;92.90;;;;;;4127669;28;20035;-86
2021/06/17 01:39:43;;;;;;;5.22;3.53;;;24.80;92.80;;;;;;4128252;28;20038;-86
2021/06/17 01:41:47;;;;;;;4.70;3.60;;;24.80;92.50;;;;;;4144482;28;20072;-86
2021/06/17 01:43:49;;;;;;;4.32;3.58;;;24.80;92.80;;;;;;4126422;28;20711;-86
2021/06/17 01:45:51;;;;;;;3.55;3.08;;;24.70;92.50;;;;;;4128408;28;20042;-86
2021/06/17 01:48:21;;;;;;;4.13;3.60;;;24.70;92.70;;;;;;4127494;28;20037;-86
2021/06/17 01:50:25;;;;;;;5.40;3.33;;;24.70;92.90;;;;;;4127893;28;20736;-86
2021/06/17 01:52:29;;;;;;;5.75;3.50;;;24.70;93.10;;;;;;4146141;28;20042;-86
2021/06/17 01:54:31;;;;;;;4.38;3.65;;;24.70;92.50;;;;;;4128352;28;20041;-86
2021/06/17 01:56:32;;;;;;;4.53;3.88;;;24.70;92.50;;;;;;4126115;28;20561;-86
2021/06/17 01:58:40;;;;;;;4.07;3.33;;;24.70;92.80;;;;;;4128124;28;20058;-86
2021/06/17 02:00:44;;;;;;;4.53;3.58;;;24.70;92.70;;;;;;4128078;28;20034;-86
2021/06/17 02:02:46;;;;;;;3.65;3.33;;;24.70;93.00;;;;;;4127921;28;20399;-86
2021/06/17 02:04:51;;;;;;;3.78;3.33;;;24.70;93.20;;;;;;4127876;28;20172;-86
2021/06/17 02:06:53;;;;;;;3.85;3.45;;;24.70;93.00;;;;;;4128181;28;20072;-86
2021/06/17 02:08:55;;;;;;;4.73;3.90;;;24.70;92.80;;;;;;4139929;28;20044;-86
2021/06/17 02:10:56;;;;;;;5.57;3.83;;;24.70;92.80;;;;;;4127717;28;20066;-86
2021/06/17 02:12:58;;;;;;;4.88;3.72;;;24.70;93.00;;;;;;4127590;28;20034;-86
2021/06/17 02:15:06;;;;;;;5.85;3.88;;;24.70;92.80;;;;;;4124003;28;20145;-86
2021/06/17 02:17:08;;;;;;;6.57;3.88;;;24.70;92.80;;;;;;4126734;28;20133;-86
2021/06/17 02:19:11;;;;;;;4.88;4.13;;;24.70;92.90;;;;;;4143837;28;20040;-86
2021/06/17 02:21:14;;;;;;;4.63;3.80;;;24.70;92.90;;;;;;4143660;28;20033;-86
2021/06/17 02:23:18;;;;;;;4.45;3.55;;;24.70;93.00;;;;;;4127896;28;20038;-86
2021/06/17 02:25:21;;;;;;;4.07;3.65;;;24.60;92.90;;;;;;4148275;28;20038;-86
2021/06/17 02:27:27;;;;;;;5.18;4.13;;;24.60;93.00;;;;;;4144057;28;20030;-86
2021/06/17 02:29:33;;;;;;;5.03;3.90;;;24.50;93.00;;;;;;4143424;28;20066;-86
2021/06/17 02:31:49;;;;;;;4.07;3.63;;;24.50;93.20;;;;;;4122849;28;20116;-86
2021/06/17 02:33:50;;;;;;;5.13;4.00;;;24.50;93.20;;;;;;4124842;28;20023;-86
2021/06/17 02:35:53;;;;;;;4.05;3.63;;;24.50;93.00;;;;;;4127245;28;20022;-86
2021/06/17 02:37:57;;;;;;;6.30;4.25;;;24.40;93.40;;;;;;4142796;28;20030;-86
2021/06/17 02:39:58;;;;;;;6.25;4.20;;;24.40;93.30;;;;;;4124247;28;20034;-86
2021/06/17 02:42:01;;;;;;;7.05;4.03;;;24.30;93.10;;;;;;4126928;28;20030;-86
2021/06/17 02:44:03;;;;;;;;;;;24.30;93.50;;;;;;4138290;28;20102;-86
2021/06/17 02:46:04;;;;;;;5.88;4.38;;;24.30;93.30;;;;;;4143295;28;19932;-86
2021/06/17 02:48:05;;;;;;;5.93;4.20;;;24.30;93.40;;;;;;4127240;28;20033;-86
2021/06/17 02:50:07;;;;;;;7.78;4.32;;;24.20;93.70;;;;;;4144592;28;20474;-86
2021/06/17 02:52:07;;;;;;;6.30;3.90;;;24.20;93.40;;;;;;4143642;28;20038;-86
2021/06/17 02:54:20;;;;;;;6.22;4.22;;;24.30;93.90;;;;;;4141730;28;20029;-86
2021/06/17 02:56:31;;;;;;;5.57;3.47;;;24.20;93.60;;;;;;4126902;28;20094;-86
2021/06/17 02:58:55;;;;;;;5.72;4.00;;;24.20;93.80;;;;;;4138076;28;20487;-86
2021/06/17 03:01:03;;;;;;;4.13;3.45;;;24.20;93.80;;;;;;4127240;28;20035;-86
2021/06/17 03:03:03;;;;;;;5.60;3.92;;;24.20;93.60;;;;;;4142932;28;20033;-86
2021/06/17 03:05:15;;;;;;;3.83;3.42;;;24.20;93.70;;;;;;4143055;28;20602;-86
2021/06/17 03:07:31;;;;;;;5.18;3.60;;;24.20;93.80;;;;;;4143300;28;20090;-86
2021/06/17 03:09:48;;;;;;;4.47;3.72;;;24.20;93.80;;;;;;4126819;28;20103;-86
2021/06/17 03:11:56;;;;;;;5.78;4.00;;;24.20;93.90;;;;;;4142918;28;20109;-86
2021/06/17 03:14:05;;;;;;;4.28;3.50;;;24.10;93.70;;;;;;4127483;28;20125;-86
2021/06/17 03:16:28;;;;;;;5.78;3.90;;;24.10;94.10;;;;;;4143107;28;20127;-86
2021/06/17 03:18:32;;;;;;;6.40;4.18;;;24.10;94.00;;;;;;4126996;28;20054;-86
2021/06/17 03:20:36;;;;;;;6.00;3.75;;;24.00;94.00;;;;;;4129363;28;20034;-86
2021/06/17 03:22:48;;;;;;;6.25;4.25;;;24.00;94.10;;;;;;4126461;28;20435;-86
2021/06/17 03:24:54;;;;;;;6.45;4.20;;;24.00;94.00;;;;;;4142225;28;20030;-86
2021/06/17 03:26:59;;;;;;;10.68;4.57;;;23.90;94.00;;;;;;4126900;28;20038;-86
2021/06/17 03:29:15;;;;;;;9.77;4.47;;;23.80;93.90;;;;;;4142754;28;20026;-86
2021/06/17 03:31:22;;;;;;;8.18;4.60;;;23.80;94.10;;;;;;4123728;28;20849;-86
2021/06/17 03:33:36;;;;;;;6.28;4.38;;;23.80;94.20;;;;;;4125972;28;20125;-86
2021/06/17 03:35:46;;;;;;;6.40;4.18;;;23.70;94.50;;;;;;4142192;28;20097;-86
2021/06/17 03:37:49;;;;;;;6.30;4.57;;;23.70;94.80;;;;;;4125527;28;20121;-86
2021/06/17 03:39:53;;;;;;;7.82;4.32;;;23.70;94.30;;;;;;4147076;28;20026;-86
2021/06/17 03:41:54;;;;;;;6.50;4.13;;;23.70;94.30;;;;;;4144156;28;20030;-86
2021/06/17 03:43:57;;;;;;;6.65;4.03;;;23.60;94.70;;;;;;4137486;28;20117;-86
2021/06/17 03:46:00;;;;;;;5.50;4.38;;;23.60;95.00;;;;;;4119118;28;20049;-86
2021/06/17 03:48:09;;;;;;;7.30;4.32;;;23.60;95.00;;;;;;4143698;28;20033;-86
2021/06/17 03:50:12;;;;;;;8.77;3.90;;;23.60;94.80;;;;;;4126404;28;20448;-86
2021/06/17 03:52:15;;;;;;;7.28;4.35;;;23.60;95.00;;;;;;4142699;28;20036;-86
2021/06/17 03:54:27;;;;;;;6.00;4.20;;;23.50;94.70;;;;;;4126714;28;20053;-86
2021/06/17 03:56:28;;;;;;;5.18;4.20;;;23.50;95.10;;;;;;4142383;28;20022;-86
2021/06/17 03:58:30;;;;;;;9.00;4.28;;;23.50;95.10;;;;;;4143280;28;20421;-86
2021/06/17 04:00:32;;;;;;;4.93;3.72;;;23.50;95.30;;;;;;4143041;28;20026;-86
2021/06/17 04:02:32;;;;;;;7.70;4.05;;;23.50;95.20;;;;;;4142478;28;20033;-86
2021/06/17 04:04:41;;;;;;;6.53;4.05;;;23.50;95.00;;;;;;4142807;28;20034;-86
2021/06/17 04:06:44;;;;;;;4.07;3.35;;;23.60;95.40;;;;;;4143130;28;20069;-86
2021/06/17 04:08:50;;;;;;;20.58;4.60;;;23.50;95.40;;;;;;4138155;28;20033;-86
2021/06/17 04:10:54;;;;;;;5.90;3.95;;;23.50;94.90;;;;;;4143141;28;20542;-85
2021/06/17 04:12:57;;;;;;;8.65;4.18;;;23.40;95.30;;;;;;4143684;28;20041;-86
2021/06/17 04:15:50;;;;;;;5.93;3.90;;;23.40;95.50;;;;;;4144198;28;20134;-86
2021/06/17 04:17:54;;;;;;;5.78;3.63;;;23.40;95.40;;;;;;4126061;28;20031;-86
2021/06/17 04:19:59;;;;;;;5.22;3.92;;;23.40;95.40;;;;;;4126782;28;20034;-86
2021/06/17 04:22:02;;;;;;;6.50;3.60;;;23.40;95.40;;;;;;4126636;28;20030;-86
2021/06/17 04:24:06;;;;;;;4.57;3.40;;;23.40;95.50;;;;;;4142676;28;20548;-86
2021/06/17 04:26:07;;;;;;;8.18;4.10;;;23.40;95.90;;;;;;4143128;28;20113;-86
2021/06/17 04:28:09;;;;;;;5.95;3.97;;;23.40;95.70;;;;;;4126507;28;20036;-86
2021/06/17 04:30:27;;;;;;;8.25;4.10;;;23.50;95.80;;;;;;4125202;28;20085;-86
2021/06/17 04:32:28;;;;;;;7.70;4.05;;;23.50;95.90;;;;;;4123827;28;20614;-86
2021/06/17 04:34:29;;;;;;;10.85;4.30;;;23.50;95.70;;;;;;4142990;28;20568;-86
2021/06/17 04:36:30;;;;;;;7.75;4.25;;;23.50;95.70;;;;;;4126612;28;20027;-86
2021/06/17 04:38:31;;;;;;;6.18;4.63;;;23.50;95.80;;;;;;4126419;28;20045;-86
2021/06/17 04:40:34;;;;;;;5.05;4.05;;;23.50;95.70;;;;;;4126174;28;20518;-86
2021/06/17 04:42:41;;;;;;;7.53;4.35;;;23.40;95.80;;;;;;4125435;28;20030;-86
2021/06/17 04:44:44;;;;;;;5.53;3.90;;;23.40;96.30;;;;;;4126691;28;20058;-86
2021/06/17 04:46:47;;;;;;;9.10;4.00;;;23.40;96.20;;;;;;4142539;28;20104;-86
2021/06/17 04:48:50;;;;;;;5.47;3.58;;;23.50;96.30;;;;;;4144052;28;20030;-86
2021/06/17 04:50:51;;;;;;;8.48;4.55;;;23.50;96.30;;;;;;4146840;28;20689;-86
2021/06/17 04:52:58;;;;;;;6.65;4.18;;;23.60;96.30;;;;;;4124044;28;20395;-86
2021/06/17 04:54:58;;;;;;;5.50;3.55;;;23.60;96.40;;;;;;4155462;28;20534;-86
2021/06/17 04:56:59;;;;;;;7.07;4.32;;;23.60;96.20;;;;;;4123993;28;20062;-86
2021/06/17 04:58:59;;;;;;;7.85;3.90;;;23.60;96.40;;;;;;4120615;28;20030;-86
2021/06/17 05:01:00;;;;;;;5.85;3.53;;;23.70;96.20;;;;;;4121412;28;20035;-85
2021/06/17 05:03:01;;;;;;;5.05;3.83;;;23.70;96.30;;;;;;4145813;28;20105;-81
2021/06/17 05:05:03;;;;;;;5.72;4.30;;;23.70;96.20;;;;;;4130609;28;20030;-82
2021/06/17 05:11:25;;;;;;;6.90;4.22;;;23.80;96.20;;;;;;4152965;28;20034;-82
2021/06/17 05:13:29;;;;;;;7.13;4.18;;;23.80;95.90;;;;;;4134270;28;20062;-82
2021/06/17 05:15:30;;;;;;;6.32;3.95;;;23.80;95.80;;;;;;4149247;28;20034;-82
2021/06/17 05:17:37;;;;;;;7.50;3.85;;;23.90;95.90;;;;;;4147434;28;20704;-82
2021/06/17 05:19:47;;;;;;;9.05;4.50;;;24.00;96.00;;;;;;4147665;28;20025;-82
2021/06/17 05:21:47;;;;;;;8.15;3.90;;;24.10;96.00;;;;;;4149532;28;20045;-82
2021/06/17 05:23:48;;;;;;;8.07;4.32;;;24.10;95.90;;;;;;4123479;28;20026;-82
2021/06/17 05:25:55;;;;;;;8.93;4.30;;;24.20;95.90;;;;;;4153283;28;20033;-82
2021/06/17 05:27:56;;;;;;;5.07;3.95;;;24.30;95.90;;;;;;4148697;28;20030;-82
2021/06/17 05:30:08;;;;;;;7.00;3.70;;;24.30;95.80;;;;;;4148370;28;20104;-82
2021/06/17 05:32:15;;;;;;;4.47;3.20;;;24.40;95.00;;;;;;4148083;28;20842;-82
2021/06/17 05:34:16;;;;;;;5.90;3.63;;;24.50;95.30;;;;;;4149565;28;20045;-82
2021/06/17 05:36:16;;;;;;;5.97;3.78;;;24.60;94.90;;;;;;4151597;28;20087;-82
2021/06/17 05:38:19;;;;;;;6.47;3.95;;;24.70;94.90;;;;;;4149751;28;20421;-82
2021/06/17 05:40:19;;;;;;;6.38;3.97;;;24.80;94.70;;;;;;4135702;28;20054;-82
2021/06/17 05:42:20;;;;;;;10.35;3.45;;;24.80;94.40;;;;;;4132364;28;20661;-82
2021/06/17 05:44:21;;;;;;;6.13;3.60;;;24.90;94.00;;;;;;4152232;28;20053;-82
2021/06/17 05:46:22;;;;;;;8.50;4.18;;;25.00;93.70;;;;;;4152284;28;20133;-83
2021/06/17 05:48:23;;;;;;;4.70;3.33;;;25.00;94.10;;;;;;4134836;28;20479;-82
2021/06/17 05:50:23;;;;;;;9.10;3.67;;;25.10;94.00;;;;;;4149981;28;20106;-82
2021/06/17 05:55:20;;;;;;;9.02;3.70;;;25.10;93.80;;;;;;4149119;28;20038;-82
2021/06/17 05:57:22;;;;;;;4.95;3.50;;;25.20;93.40;;;;;;4136560;28;20030;-82
2021/06/17 05:59:23;;;;;;;6.20;3.67;;;25.20;93.60;;;;;;4150313;28;20910;-82
2021/06/17 06:01:25;;;;;;;4.28;3.25;;;25.20;93.80;;;;;;4149226;28;20179;-82
2021/06/17 06:03:33;;;;;;;;;;;25.20;93.60;;;;;;4150725;28;20052;-82
2021/06/17 06:05:34;;;;;;;6.35;3.80;;;25.20;93.20;;;;;;4148234;28;19928;-82
2021/06/17 06:07:35;;;;;;;5.95;4.00;;;25.20;93.30;;;;;;4132292;28;20189;-82
2021/06/17 06:09:39;;;;;;;7.13;3.70;;;25.20;93.20;;;;;;4149387;28;20087;-83
2021/06/17 06:11:41;;;;;;;6.18;3.13;;;25.30;93.40;;;;;;4149846;28;20041;-83
2021/06/17 06:13:42;;;;;;;8.20;3.80;;;25.40;93.60;;;;;;4150728;28;20052;-83
2021/06/17 06:15:45;;;;;;;9.70;4.05;;;25.70;92.90;;;;;;4133143;28;20031;-82
2021/06/17 06:17:46;;;;;;;8.95;4.03;;;25.90;92.40;;;;;;4153810;28;20038;-83
2021/06/17 06:19:46;;;;;;;4.30;3.45;;;26.10;92.30;;;;;;4133150;28;20034;-83
2021/06/17 06:21:48;;;;;;;7.38;3.88;;;26.40;92.00;;;;;;4153009;28;20080;-82
2021/06/17 06:23:52;;;;;;;7.22;3.70;;;26.50;91.10;;;;;;4135732;28;20038;-83
2021/06/17 06:25:53;;;;;;;6.55;3.60;;;26.70;90.60;;;;;;4152095;28;20053;-82
2021/06/17 06:27:53;;;;;;;5.47;3.47;;;26.80;90.70;;;;;;4151711;28;20033;-82
2021/06/17 06:29:56;;;;;;;10.45;3.67;;;26.80;90.30;;;;;;4134772;28;20042;-82
2021/06/17 06:32:08;;;;;;;6.25;3.00;;;26.80;90.70;;;;;;4129843;28;20044;-82
2021/06/17 06:34:09;;;;;;;5.85;3.33;;;26.70;90.50;;;;;;4135684;28;20034;-82
2021/06/17 06:36:09;;;;;;;7.85;4.18;;;26.80;90.90;;;;;;4149360;28;20653;-82
2021/06/17 06:38:17;;;;;;;6.28;3.40;;;26.80;90.40;;;;;;4132141;28;20118;-82
2021/06/17 06:40:20;;;;;;;5.80;3.28;;;26.70;90.20;;;;;;4152929;28;20034;-82
2021/06/17 06:42:27;;;;;;;5.28;3.55;;;26.70;90.30;;;;;;4133117;28;20037;-82
2021/06/17 06:44:28;;;;;;;5.40;3.65;;;26.60;90.50;;;;;;4147539;28;20088;-82
2021/06/17 06:46:29;;;;;;;8.40;3.25;;;26.60;90.50;;;;;;4152507;28;20496;-82
2021/06/17 06:48:36;;;;;;;6.35;3.60;;;26.60;90.50;;;;;;4151293;28;20092;-83
2021/06/17 06:50:37;;;;;;;7.63;3.40;;;26.70;91.10;;;;;;4151096;28;20037;-82
2021/06/17 06:52:38;;;;;;;7.80;3.05;;;26.70;90.80;;;;;;4132087;28;20048;-82
2021/06/17 06:54:42;;;;;;;7.75;3.50;;;26.80;90.50;;;;;;4133770;28;20029;-82
2021/06/17 06:56:43;;;;;;;6.68;3.80;;;26.80;90.80;;;;;;4153063;28;20100;-82
2021/06/17 06:58:43;;;;;;;5.38;3.80;;;26.80;90.40;;;;;;4135017;28;20040;-83
2021/06/17 07:00:45;;;;;;;7.05;3.45;;;26.80;90.40;;;;;;4150064;28;20038;-82
2021/06/17 07:02:45;;;;;;;4.97;3.25;;;26.70;90.20;;;;;;4146445;28;20041;-82
2021/06/17 07:04:46;;;;;;;7.60;3.67;;;26.80;90.40;;;;;;4132299;28;20833;-82
2021/06/17 07:06:47;;;;;;;9.18;3.50;;;26.70;90.00;;;;;;4139733;28;20045;-82
2021/06/17 07:08:48;;;;;;;3.28;2.90;;;26.80;90.30;;;;;;4147548;28;20045;-81
2021/06/17 07:10:49;;;;;;;6.10;3.15;;;26.70;91.00;;;;;;4148998;28;20052;-82
2021/06/17 07:12:49;;;;;;;6.95;3.50;;;26.80;90.70;;;;;;4134057;28;20129;-81
2021/06/17 07:14:50;;;;;;;7.63;3.63;;;26.80;90.60;;;;;;4133212;28;20038;-82
2021/06/17 07:16:51;;;;;;;4.97;3.38;;;26.80;90.50;;;;;;4150579;28;20102;-82
2021/06/17 07:18:55;;;;;;;8.07;3.67;;;26.80;90.40;;;;;;4149104;28;20034;-82
2021/06/17 07:20:55;;;;;;;4.82;3.65;;;26.80;90.50;;;;;;4147972;28;20033;-82
2021/06/17 07:22:56;;;;;;;5.97;3.40;;;26.90;90.80;;;;;;4150847;28;20080;-82
2021/06/17 07:24:58;;;;;;;4.95;3.08;;;26.90;90.50;;;;;;4132626;28;20037;-82
2021/06/17 07:27:00;;;;;;;5.80;3.10;;;26.90;90.80;;;;;;4145961;28;20044;-81
2021/06/17 07:29:04;;;;;;;7.35;3.53;;;27.00;90.50;;;;;;4148820;28;20034;-81
2021/06/17 07:31:06;;;;;;;6.18;3.00;;;27.00;90.60;;;;;;4150530;28;20113;-82
2021/06/17 07:33:07;;;;;;;;;;;27.00;90.20;;;;;;4152128;28;21061;-81
2021/06/17 07:35:10;;;;;;;3.67;2.63;;;27.10;90.00;;;;;;4150982;28;20007;-81
2021/06/17 07:37:17;;;;;;;6.10;3.38;;;27.20;89.20;;;;;;4148098;28;20033;-81
2021/06/17 07:39:19;;;;;;;10.70;3.83;;;27.20;89.30;;;;;;4147746;28;20037;-81
2021/06/17 07:41:20;;;;;;;8.82;3.55;;;27.30;88.60;;;;;;4146094;28;20045;-81
2021/06/17 07:43:21;;;;;;;5.28;3.08;;;27.30;88.40;;;;;;4151797;28;20046;-81
2021/06/17 07:45:25;;;;;;;10.32;3.67;;;27.40;88.70;;;;;;4150953;28;20037;-81
2021/06/17 07:47:33;;;;;;;6.53;3.70;;;27.30;88.10;;;;;;4143674;28;20047;-82
2021/06/17 07:49:54;;;;;;;12.63;3.67;;;27.40;89.10;;;;;;4147059;28;20080;-82
2021/06/17 07:51:54;;;;;;;9.60;3.83;;;27.50;88.40;;;;;;4133083;28;20061;-82
2021/06/17 07:54:00;;;;;;;6.07;3.35;;;27.50;88.20;;;;;;4130983;28;20033;-81
2021/06/17 07:56:09;;;;;;;6.82;3.13;;;27.60;89.50;;;;;;4145155;28;20025;-82
2021/06/17 07:58:11;;;;;;;7.85;3.35;;;27.60;88.60;;;;;;4147698;28;20112;-82
2021/06/17 08:00:12;;;;;;;6.40;3.77;;;27.60;89.00;;;;;;4133866;28;20943;-82
2021/06/17 08:02:12;;;;;;;5.40;3.47;;;27.70;89.20;;;;;;4146895;28;20042;-82
2021/06/17 08:04:13;;;;;;;9.27;3.42;;;27.70;87.00;;;;;;4130317;28;20536;-81
2021/06/17 08:06:14;;;;;;;4.25;3.20;;;27.70;87.70;;;;;;4148106;28;20409;-81
2021/06/17 08:08:15;;;;;;;7.35;2.90;;;27.80;87.70;;;;;;4144801;28;20504;-81
2021/06/17 08:10:24;;;;;;;5.65;3.10;;;27.80;88.30;;;;;;4148158;28;20053;-82
2021/06/17 08:12:27;;;;;;;6.18;3.58;;;27.90;87.20;;;;;;4146461;28;21038;-81
2021/06/17 08:14:29;;;;;;;4.53;3.08;;;28.00;87.40;;;;;;4146085;28;20127;-82
2021/06/17 08:16:30;;;;;;;5.53;3.10;;;28.00;88.20;;;;;;4150602;28;20053;-81
2021/06/17 08:18:30;;;;;;;5.70;2.80;;;28.10;87.40;;;;;;4148669;28;20482;-81
2021/06/17 08:20:31;;;;;;;4.88;3.20;;;28.20;86.40;;;;;;4130632;28;20049;-82
2021/06/17 08:22:32;;;;;;;4.95;2.88;;;28.30;87.10;;;;;;4151080;28;20045;-81
2021/06/17 08:24:39;;;;;;;3.75;2.92;;;28.30;85.60;;;;;;4131267;28;20613;-82
2021/06/17 08:26:40;;;;;;;8.13;2.63;;;28.40;87.20;;;;;;4143673;28;20033;-82
2021/06/17 08:28:42;;;;;;;6.57;3.13;;;28.40;85.50;;;;;;4148734;28;20099;-81
2021/06/17 08:30:43;;;;;;;7.68;3.05;;;28.60;83.60;;;;;;4129847;28;20045;-81
2021/06/17 08:32:52;;;;;;;3.67;2.55;;;28.60;81.70;;;;;;4148434;28;20413;-81
2021/06/17 08:34:52;;;;;;;4.22;2.55;;;28.70;80.50;;;;;;4148958;28;20033;-81
2021/06/17 08:36:53;;;;;;;6.53;3.55;;;28.70;79.60;;;;;;4148789;28;20025;-82
2021/06/17 08:39:04;;;;;;;4.05;2.40;;;28.80;80.90;;;;;;4148618;28;20037;-81
2021/06/17 08:41:05;;;;;;;3.58;2.90;;;28.80;80.80;;;;;;4145829;28;20045;-81
2021/06/17 08:43:07;;;;;;;4.38;2.70;;;28.80;79.40;;;;;;4152532;28;20103;-82
2021/06/17 08:45:10;;;;;;;5.40;3.20;;;28.90;78.70;;;;;;4134072;28;20042;-82
2021/06/17 08:47:17;;;;;;;4.75;2.67;;;29.00;80.40;;;;;;4132032;28;20034;-81
2021/06/17 08:49:23;;;;;;;5.43;2.67;;;29.10;79.40;;;;;;4131734;28;20037;-81
2021/06/17 08:51:33;;;;;;;3.92;2.80;;;29.20;80.70;;;;;;4152233;28;20030;-81
2021/06/17 08:53:42;;;;;;;7.03;3.10;;;29.30;80.30;;;;;;4151227;28;20145;-81
2021/06/17 08:55:42;;;;;;;8.10;3.10;;;29.30;78.80;;;;;;4148731;28;20037;-81
2021/06/17 08:57:52;;;;;;;8.27;2.90;;;29.40;79.10;;;;;;4136548;28;20058;-81
2021/06/17 08:59:58;;;;;;;4.43;2.70;;;29.40;79.30;;;;;;4149492;28;20068;-81
2021/06/17 09:02:13;;;;;;;5.57;2.53;;;29.50;80.20;;;;;;4153489;28;20041;-81
2021/06/17 09:04:26;;;;;;;3.78;2.60;;;29.60;81.20;;;;;;4148306;28;21334;-81
2021/06/17 09:06:27;;;;;;;6.75;2.70;;;29.70;79.50;;;;;;4131625;28;20561;-81
2021/06/17 09:08:31;;;;;;;4.13;2.90;;;29.80;78.50;;;;;;4149434;28;20041;-81
2021/06/17 09:10:45;;;;;;;4.10;2.88;;;29.90;78.60;;;;;;4149459;28;20052;-81
2021/06/17 09:12:54;;;;;;;3.38;2.58;;;29.90;77.90;;;;;;4129230;28;20085;-81
2021/06/17 09:14:57;;;;;;;3.80;2.63;;;30.00;77.80;;;;;;4148987;28;20038;-81
2021/06/17 09:17:09;;;;;;;5.80;2.83;;;30.10;77.80;;;;;;4130004;28;20101;-81
2021/06/17 09:19:34;;;;;;;5.18;2.90;;;30.20;79.40;;;;;;4150553;28;20091;-81
2021/06/17 09:21:36;;;;;;;4.22;2.70;;;30.20;77.80;;;;;;4151272;28;20038;-81
2021/06/17 09:23:46;;;;;;;3.72;2.78;;;30.30;76.70;;;;;;4150269;28;20040;-81
2021/06/17 09:26:21;;;;;;;4.70;2.72;;;30.40;75.70;;;;;;4130646;28;20034;-81
2021/06/17 09:28:22;;;;;;;5.35;2.63;;;30.50;76.10;;;;;;4160836;28;20041;-81
2021/06/17 09:30:23;;;;;;;7.82;2.95;;;30.60;77.00;;;;;;4151924;28;20045;-82
2021/06/17 09:32:30;;;;;;;5.18;2.78;;;30.50;74.20;;;;;;4147281;28;20121;-81
2021/06/17 09:34:31;;;;;;;3.95;2.60;;;30.60;76.70;;;;;;4153568;28;20116;-81
2021/06/17 09:36:35;;;;;;;3.25;2.90;;;30.70;74.80;;;;;;4149798;28;20030;-81
2021/06/17 09:38:50;;;;;;;3.63;2.45;;;30.70;75.80;;;;;;4145099;28;20026;-81
2021/06/17 09:40:53;;;;;;;5.63;2.85;;;30.70;73.40;;;;;;4149461;28;20032;-81
2021/06/17 09:43:13;;;;;;;2.83;2.40;;;30.80;73.50;;;;;;4149921;28;20034;-80
2021/06/17 09:45:20;;;;;;;8.93;2.58;;;30.90;74.00;;;;;;4150043;28;20045;-81
2021/06/17 09:47:25;;;;;;;2.80;2.40;;;31.00;74.90;;;;;;4150105;28;20045;-81
2021/06/17 09:49:27;;;;;;;3.33;2.63;;;31.00;72.80;;;;;;4148537;28;20068;-81
2021/06/17 09:51:44;;;;;;;4.30;2.28;;;31.10;72.50;;;;;;4133878;28;20045;-81
2021/06/17 09:53:54;;;;;;;3.85;2.65;;;31.20;72.70;;;;;;4147114;28;20061;-81
2021/06/17 09:55:55;;;;;;;4.00;2.72;;;31.30;72.90;;;;;;4152011;28;20518;-80
2021/06/17 09:57:55;;;;;;;2.95;2.63;;;31.40;71.30;;;;;;4147020;28;20049;-81
2021/06/17 10:00:07;;;;;;;3.83;2.45;;;31.40;71.00;;;;;;4144567;28;20576;-81
2021/06/17 10:02:12;;;;;;;4.50;2.80;;;31.50;71.60;;;;;;4147293;28;20064;-81
2021/06/17 10:04:19;;;;;;;7.10;2.78;;;31.60;71.70;;;;;;4150330;28;20033;-81
2021/06/17 10:06:26;;;;;;;5.70;3.42;;;31.60;70.90;;;;;;4148011;28;20052;-81
2021/06/17 10:08:28;;;;;;;3.85;2.90;;;31.70;70.60;;;;;;4136675;28;20142;-81
2021/06/17 10:10:35;;;;;;;4.90;2.85;;;31.70;72.00;;;;;;4150046;28;20030;-81
2021/06/17 10:12:37;;;;;;;4.32;3.30;;;31.80;69.90;;;;;;4146453;28;20087;-81
2021/06/17 10:14:38;;;;;;;;;;;31.80;69.40;;;;;;4148316;28;20123;-81
2021/06/17 10:16:45;;;;;;;3.92;2.75;;;31.80;69.90;;;;;;4152203;28;19913;-80
2021/06/17 10:18:46;;;;;;;4.75;2.70;;;31.90;69.40;;;;;;4149842;28;20029;-81
2021/06/17 10:20:52;;;;;;;4.20;2.70;;;32.00;69.30;;;;;;4150087;28;20114;-80
2021/06/17 10:22:54;;;;;;;8.38;2.88;;;32.10;69.20;;;;;;4144967;28;20034;-80
2021/06/17 10:24:55;;;;;;;;;;;32.10;67.90;;;;;;4149642;28;20030;-81
2021/06/17 10:27:08;;;;;;;4.47;2.65;;;32.10;67.80;;;;;;4151202;28;19921;-81
2021/06/17 10:29:21;;;;;;;;;;;32.20;67.40;;;;;;4143577;28;20038;-80
2021/06/17 10:31:51;;;;;;;4.30;2.80;;;32.30;69.20;;;;;;4149002;28;19912;-80
2021/06/17 10:33:52;;;;;;;3.08;2.45;;;32.40;69.60;;;;;;4147095;28;20037;-80
2021/06/17 10:36:17;;;;;;;3.28;2.80;;;32.40;69.00;;;;;;4129042;28;20073;-80
2021/06/17 10:38:17;;;;;;;5.03;3.08;;;32.50;68.80;;;;;;4145789;28;20117;-80
2021/06/17 10:40:25;;;;;;;6.95;3.13;;;32.50;68.30;;;;;;4130339;28;20114;-81
2021/06/17 10:42:30;;;;;;;7.25;3.30;;;32.50;68.60;;;;;;4147670;28;20051;-81
2021/06/17 10:44:59;;;;;;;5.65;3.25;;;32.50;67.50;;;;;;4146505;28;20135;-81
2021/06/17 10:47:00;;;;;;;5.95;2.92;;;32.60;69.70;;;;;;4131204;28;20633;-80
2021/06/17 10:49:02;;;;;;;3.58;2.90;;;32.60;66.70;;;;;;4133693;28;20114;-81
2021/06/17 10:51:10;;;;;;;5.70;3.10;;;32.70;67.00;;;;;;4151780;28;20037;-81
2021/06/17 10:53:23;;;;;;;9.15;3.50;;;32.70;68.20;;;;;;4147939;28;20280;-80
2021/06/17 10:55:48;;;;;;;4.15;3.17;;;32.70;67.40;;;;;;4124476;28;20058;-80
2021/06/17 10:57:57;;;;;;;5.00;3.03;;;32.80;66.90;;;;;;4144522;28;20526;-80
2021/06/17 11:02:41;;;;;;;4.07;3.05;;;32.90;68.00;;;;;;4146985;28;20044;-80